createdAt,value
2023-08-24T00:01:17.735Z,97270.03
2023-08-24T00:03:47.736Z,97284.72
2023-08-24T00:06:14.437Z,97292.31
2023-08-24T00:08:41.157Z,97287.00
2023-08-24T00:11:08.922Z,97290.34
2023-08-24T00:13:35.908Z,97289.94
2023-08-24T00:16:02.629Z,97292.22
2023-08-24T00:18:29.276Z,97299.47
2023-08-24T00:20:55.877Z,97298.78
2023-08-24T00:23:22.527Z,97308.84
2023-08-24T00:25:49.135Z,97308.16
2023-08-24T00:28:16.062Z,97303.25
2023-08-24T00:30:42.696Z,97295.31
2023-08-24T00:33:09.399Z,97293.34
2023-08-24T00:35:36.099Z,97292.66
2023-08-24T00:38:03.442Z,97288.53
2023-08-24T00:40:30.059Z,97281.22
2023-08-24T00:42:56.914Z,97279.00
2023-08-24T00:45:23.786Z,97278.63
2023-08-24T00:47:51.318Z,97279.31
2023-08-24T00:50:19.148Z,97279.31
2023-08-24T00:52:47.944Z,97277.50
2023-08-24T00:55:15.595Z,97266.16
2023-08-24T00:57:43.121Z,97274.13
2023-08-24T01:00:11.753Z,97267.50
2023-08-24T01:02:39.474Z,97266.09
2023-08-24T01:05:07.816Z,97264.97
2023-08-24T01:07:37.272Z,97266.34
2023-08-24T01:10:07.389Z,97258.78
2023-08-24T01:12:44.787Z,97253.31
2023-08-24T01:15:17.178Z,97253.69
2023-08-24T01:17:45.205Z,97257.03
2023-08-24T01:20:14.756Z,97274.88
2023-08-24T01:23:10.264Z,97281.91
2023-08-24T01:25:47.010Z,97276.25
2023-08-24T01:28:15.929Z,97270.22
2023-08-24T01:30:44.287Z,97272.75
2023-08-24T01:33:13.294Z,97273.44
2023-08-24T01:35:41.149Z,97265.28
2023-08-24T01:38:08.887Z,97262.72
2023-08-24T01:41:03.824Z,97253.03
2023-08-24T01:43:43.846Z,97241.97
2023-08-24T01:46:16.076Z,97243.50
2023-08-24T01:48:45.078Z,97253.16
2023-08-24T01:51:13.039Z,97244.41
2023-08-24T01:53:40.985Z,97241.53
2023-08-24T01:56:16.090Z,97241.91
2023-08-24T01:58:42.859Z,97224.75
2023-08-24T02:01:10.345Z,97224.34
2023-08-24T02:03:37.442Z,97217.28
2023-08-24T02:06:06.033Z,97220.56
2023-08-24T02:08:32.673Z,97229.69
2023-08-24T02:10:59.342Z,97217.88
2023-08-24T02:13:25.986Z,97217.09
2023-08-24T02:16:10.071Z,97203.84
2023-08-24T02:18:37.274Z,97194.38
2023-08-24T02:21:13.060Z,97189.44
2023-08-24T02:23:40.226Z,97191.19
2023-08-24T02:26:07.158Z,97184.06
2023-08-24T02:28:34.767Z,97175.06
2023-08-24T02:31:02.855Z,97167.31
2023-08-24T02:33:29.505Z,97167.06
2023-08-24T02:35:56.394Z,97164.94
2023-08-24T02:38:24.772Z,97167.63
2023-08-24T02:41:02.730Z,97163.50
2023-08-24T02:43:30.745Z,97165.75
2023-08-24T02:46:09.453Z,97167.50
2023-08-24T02:48:36.911Z,97161.31
2023-08-24T02:51:05.859Z,97166.59
2023-08-24T02:53:32.922Z,97153.91
2023-08-24T02:56:00.976Z,97143.63
2023-08-24T02:58:28.306Z,97147.47
2023-08-24T03:00:55.298Z,97132.50
2023-08-24T03:03:25.529Z,97125.53
2023-08-24T03:05:58.836Z,97129.06
2023-08-24T03:08:28.086Z,97129.47
2023-08-24T03:10:54.955Z,97135.97
2023-08-24T03:13:21.708Z,97132.78
2023-08-24T03:15:48.489Z,97139.41
2023-08-24T03:18:17.132Z,97133.69
2023-08-24T03:20:46.027Z,97126.81
2023-08-24T03:23:14.672Z,97123.44
2023-08-24T03:25:43.149Z,97104.63
2023-08-24T03:28:10.937Z,97093.84
2023-08-24T03:30:40.536Z,97088.16
2023-08-24T03:33:08.431Z,97083.81
2023-08-24T03:35:35.369Z,97077.78
2023-08-24T03:38:02.294Z,97070.16
2023-08-24T03:40:29.033Z,97079.88
2023-08-24T03:42:55.743Z,97070.06
2023-08-24T03:45:23.283Z,97069.41
2023-08-24T03:47:50.658Z,97070.75
2023-08-24T03:50:18.166Z,97075.97
2023-08-24T03:52:44.810Z,97080.00
2023-08-24T03:55:11.622Z,97085.78
2023-08-24T03:57:39.197Z,97087.41
2023-08-24T04:00:12.980Z,97084.09
2023-08-24T04:02:43.573Z,97082.97
2023-08-24T04:05:15.216Z,97087.50
2023-08-24T04:07:43.060Z,97096.22
2023-08-24T04:10:10.438Z,97112.78
2023-08-24T04:12:37.147Z,97140.88
2023-08-24T04:15:04.480Z,97166.94
2023-08-24T04:17:31.148Z,97199.09
2023-08-24T04:19:57.871Z,97221.66
2023-08-24T04:22:24.584Z,97245.41
2023-08-24T04:24:51.346Z,97262.31
2023-08-24T04:27:18.268Z,97270.78
2023-08-24T04:29:45.048Z,97281.56
2023-08-24T04:32:11.791Z,97311.66
2023-08-24T04:34:38.433Z,97323.19
2023-08-24T04:37:07.152Z,97328.53
2023-08-24T04:39:33.805Z,97334.47
2023-08-24T04:42:00.489Z,97322.63
2023-08-24T04:44:27.125Z,97326.00
2023-08-24T04:46:53.749Z,97332.44
2023-08-24T04:49:20.385Z,97327.66
2023-08-24T04:51:47.023Z,97319.72
2023-08-24T04:54:13.641Z,97311.34
2023-08-24T04:56:40.283Z,97312.91
2023-08-24T04:59:08.844Z,97322.28
2023-08-24T05:01:35.893Z,97321.19
2023-08-24T05:04:02.611Z,97321.41
2023-08-24T05:06:29.320Z,97315.84
2023-08-24T05:08:56.101Z,97314.03
2023-08-24T05:11:30.154Z,97308.81
2023-08-24T05:13:57.221Z,97308.81
2023-08-24T05:16:24.434Z,97300.72
2023-08-24T05:18:51.145Z,97289.66
2023-08-24T05:21:17.816Z,97301.88
2023-08-24T05:23:44.479Z,97295.56
2023-08-24T05:26:11.298Z,97282.50
2023-08-24T05:28:38.236Z,97277.53
2023-08-24T05:31:04.947Z,97273.06
2023-08-24T05:33:32.274Z,97264.38
2023-08-24T05:35:59.938Z,97275.16
2023-08-24T05:38:27.077Z,97268.25
2023-08-24T05:40:53.834Z,97277.25
2023-08-24T05:43:21.132Z,97274.38
2023-08-24T05:45:49.596Z,97263.66
2023-08-24T05:48:16.471Z,97268.59
2023-08-24T05:50:47.509Z,97268.56
2023-08-24T05:53:14.992Z,97260.94
2023-08-24T05:55:41.641Z,97238.91
2023-08-24T05:58:09.916Z,97234.72
2023-08-24T06:00:36.701Z,97233.88
2023-08-24T06:03:04.268Z,97220.28
2023-08-24T06:05:32.256Z,97204.81
2023-08-24T06:07:59.222Z,97191.44
2023-08-24T06:10:27.940Z,97178.69
2023-08-24T06:12:54.902Z,97177.44
2023-08-24T06:15:24.807Z,97189.69
2023-08-24T06:17:52.293Z,97190.81
2023-08-24T06:20:20.521Z,97193.56
2023-08-24T06:22:47.387Z,97173.72
2023-08-24T06:25:14.314Z,97146.06
2023-08-24T06:27:41.098Z,97110.59
2023-08-24T06:30:08.322Z,97112.19
2023-08-24T06:32:34.995Z,97110.13
2023-08-24T06:35:01.839Z,97129.06
2023-08-24T06:37:28.499Z,97137.28
2023-08-24T06:39:55.116Z,97151.41
2023-08-24T06:42:22.025Z,97154.75
2023-08-24T06:44:51.883Z,97162.09
2023-08-24T06:47:18.509Z,97173.63
2023-08-24T06:49:46.439Z,97160.31
2023-08-24T06:52:13.184Z,97150.81
2023-08-24T06:54:40.086Z,97148.03
2023-08-24T06:57:06.800Z,97138.88
2023-08-24T06:59:33.560Z,97129.06
2023-08-24T07:02:00.763Z,97111.28
2023-08-24T07:04:28.928Z,97091.47
2023-08-24T07:06:55.803Z,97114.72
2023-08-24T07:09:22.505Z,97111.81
2023-08-24T07:11:49.815Z,97110.22
2023-08-24T07:14:16.525Z,97089.25
2023-08-24T07:16:43.916Z,97071.91
2023-08-24T07:19:10.746Z,97062.13
2023-08-24T07:21:37.370Z,97047.13
2023-08-24T07:24:04.838Z,97032.66
2023-08-24T07:26:31.758Z,97042.25
2023-08-24T07:28:59.037Z,97040.84
2023-08-24T07:31:25.794Z,97046.56
2023-08-24T07:33:52.464Z,97037.63
2023-08-24T07:36:19.685Z,97026.59
2023-08-24T07:38:48.347Z,97026.94
2023-08-24T07:41:15.099Z,97016.88
2023-08-24T07:43:41.904Z,97022.91
2023-08-24T07:46:09.203Z,97024.94
2023-08-24T07:48:36.691Z,97026.28
2023-08-24T07:51:03.471Z,97025.44
2023-08-24T07:53:30.529Z,97026.13
2023-08-24T07:55:58.551Z,97022.91
2023-08-24T07:58:26.072Z,97017.06
2023-08-24T08:00:53.491Z,97016.03
2023-08-24T08:03:21.665Z,97011.38
2023-08-24T08:05:48.639Z,97013.00
2023-08-24T08:08:15.995Z,97014.47
2023-08-24T08:10:43.642Z,97008.75
2023-08-24T08:13:13.504Z,97007.88
2023-08-24T08:15:40.328Z,97017.25
2023-08-24T08:18:07.195Z,97003.25
2023-08-24T08:20:33.920Z,97013.22
2023-08-24T08:23:00.980Z,97012.88
2023-08-24T08:25:27.609Z,97024.09
2023-08-24T08:27:54.264Z,97025.25
2023-08-24T08:30:21.407Z,97021.91
2023-08-24T08:32:48.350Z,97022.94
2023-08-24T08:35:15.143Z,97023.97
2023-08-24T08:37:41.770Z,97017.09
2023-08-24T08:40:11.745Z,97026.28
2023-08-24T08:42:38.629Z,97031.00
2023-08-24T08:45:10.424Z,97022.13
2023-08-24T08:47:37.652Z,97010.59
2023-08-24T08:50:05.142Z,96995.72
2023-08-24T08:52:33.465Z,96999.56
2023-08-24T08:55:00.707Z,97002.16
2023-08-24T08:57:27.479Z,97009.50
2023-08-24T08:59:54.610Z,97005.44
2023-08-24T09:02:24.471Z,96991.91
2023-08-24T09:04:52.482Z,96982.06
2023-08-24T09:07:19.365Z,96983.25
2023-08-24T09:09:45.990Z,96978.81
2023-08-24T09:12:12.860Z,96965.84
2023-08-24T09:14:40.962Z,96957.69
2023-08-24T09:17:07.656Z,96947.66
2023-08-24T09:19:39.891Z,96942.66
2023-08-24T09:22:08.911Z,96933.75
2023-08-24T09:24:37.150Z,96941.69
2023-08-24T09:27:17.099Z,96934.94
2023-08-24T09:29:43.989Z,96927.72
2023-08-24T09:32:10.749Z,96921.63
2023-08-24T09:34:38.127Z,96920.81
2023-08-24T09:37:05.591Z,96930.47
2023-08-24T09:39:32.259Z,96910.78
2023-08-24T09:42:05.749Z,96916.19
2023-08-24T09:44:32.438Z,96916.09
2023-08-24T09:47:00.334Z,96902.81
2023-08-24T09:49:29.726Z,96916.88
2023-08-24T09:52:01.026Z,96918.81
2023-08-24T09:54:29.279Z,96907.44
2023-08-24T09:56:59.668Z,96913.84
2023-08-24T09:59:28.971Z,96906.31
2023-08-24T10:01:58.480Z,96920.09
2023-08-24T10:04:27.259Z,96919.84
2023-08-24T10:06:58.312Z,96900.34
2023-08-24T10:09:33.189Z,96892.19
2023-08-24T10:12:02.965Z,96886.69
2023-08-24T10:14:45.728Z,96888.78
2023-08-24T10:17:14.286Z,96893.47
2023-08-24T10:19:43.961Z,96902.19
2023-08-24T10:22:12.037Z,96893.41
2023-08-24T10:24:38.995Z,96895.94
2023-08-24T10:27:09.139Z,96896.78
2023-08-24T10:29:35.815Z,96888.44
2023-08-24T10:32:04.339Z,96896.25
2023-08-24T10:34:31.178Z,96898.72
2023-08-24T10:36:58.466Z,96897.19
2023-08-24T10:39:29.820Z,96899.13
2023-08-24T10:41:56.896Z,96908.34
2023-08-24T10:44:35.840Z,96922.53
2023-08-24T10:47:17.844Z,96916.78
2023-08-24T10:49:59.252Z,96912.63
2023-08-24T10:52:31.102Z,96917.22
2023-08-24T10:54:57.803Z,96908.50
2023-08-24T10:57:28.766Z,96917.28
2023-08-24T11:00:00.546Z,96905.16
2023-08-24T11:02:27.921Z,96902.31
2023-08-24T11:05:08.163Z,96901.50
2023-08-24T11:07:34.908Z,96895.22
2023-08-24T11:10:12.752Z,96897.66
2023-08-24T11:13:04.260Z,96886.47
2023-08-24T11:15:32.621Z,96881.09
2023-08-24T11:18:23.305Z,96884.59
2023-08-24T11:20:52.378Z,96878.16
2023-08-24T11:23:20.664Z,96865.91
2023-08-24T11:25:49.419Z,96863.47
2023-08-24T11:28:20.817Z,96866.34
2023-08-24T11:30:48.094Z,96867.59
2023-08-24T11:33:15.488Z,96852.91
2023-08-24T11:35:46.412Z,96859.28
2023-08-24T11:38:13.415Z,96862.19
2023-08-24T11:40:40.642Z,96868.38
2023-08-24T11:43:07.552Z,96854.41
2023-08-24T11:45:37.879Z,96851.44
2023-08-24T11:48:08.027Z,96850.00
2023-08-24T11:50:37.777Z,96851.84
2023-08-24T11:53:07.904Z,96863.47
2023-08-24T11:55:34.618Z,96857.38
2023-08-24T11:58:01.332Z,96856.03
2023-08-24T12:00:28.783Z,96847.28
2023-08-24T12:02:55.638Z,96841.94
2023-08-24T12:05:27.007Z,96862.34
2023-08-24T12:07:54.954Z,96875.25
2023-08-24T12:10:22.864Z,96891.50
2023-08-24T12:12:50.290Z,96895.88
2023-08-24T12:15:19.003Z,96898.59
2023-08-24T12:17:46.372Z,96898.53
2023-08-24T12:20:23.539Z,96895.22
2023-08-24T12:22:56.718Z,96888.56
2023-08-24T12:25:24.484Z,96888.91
2023-08-24T12:28:17.862Z,96906.38
2023-08-24T12:30:52.500Z,96923.66
2023-08-24T12:33:27.130Z,96917.56
2023-08-24T12:35:55.697Z,96933.75
2023-08-24T12:38:27.959Z,96950.72
2023-08-24T12:40:55.458Z,96972.69
2023-08-24T12:43:22.185Z,96980.88
2023-08-24T12:45:49.339Z,96963.53
2023-08-24T12:48:16.089Z,96970.97
2023-08-24T12:50:42.778Z,96965.38
2023-08-24T12:53:09.654Z,96976.78
2023-08-24T12:55:39.958Z,96980.28
2023-08-24T12:58:07.010Z,96979.38
2023-08-24T13:00:33.959Z,96997.09
2023-08-24T13:03:01.162Z,97009.38
2023-08-24T13:05:27.992Z,97031.91
2023-08-24T13:07:54.765Z,97047.28
2023-08-24T13:10:21.539Z,97060.03
2023-08-24T13:12:48.196Z,97051.09
2023-08-24T13:15:16.277Z,97062.56
2023-08-24T13:17:43.013Z,97065.16
2023-08-24T13:20:09.747Z,97068.94
2023-08-24T13:22:36.438Z,97036.78
2023-08-24T13:25:03.238Z,96990.94
2023-08-24T13:27:30.010Z,96946.31
2023-08-24T13:30:01.203Z,96830.38
2023-08-24T13:32:28.278Z,96726.06
2023-08-24T13:34:55.331Z,96732.34
2023-08-24T13:37:22.030Z,96791.22
2023-08-24T13:39:48.643Z,96775.19
2023-08-24T13:42:15.380Z,96742.13
2023-08-24T13:44:42.079Z,96732.94
2023-08-24T13:47:09.685Z,96733.31
2023-08-24T13:49:40.508Z,96734.72
2023-08-24T13:52:08.404Z,96724.81
2023-08-24T13:54:35.447Z,96735.19
2023-08-24T13:57:02.931Z,96739.19
2023-08-24T13:59:29.925Z,96745.94
2023-08-24T14:01:56.921Z,96762.78
2023-08-24T14:04:23.653Z,96767.06
2023-08-24T14:06:50.614Z,96772.13
2023-08-24T14:09:17.472Z,96772.03
2023-08-24T14:11:44.212Z,96781.88
2023-08-24T14:14:11.621Z,96791.69
2023-08-24T14:16:38.531Z,96807.69
2023-08-24T14:19:05.951Z,96843.34
2023-08-24T14:24:04.101Z,96902.50
2023-08-24T14:26:30.829Z,96908.25
2023-08-24T14:28:59.171Z,96906.78
2023-08-24T14:31:27.848Z,96914.44
2023-08-24T14:33:55.052Z,96901.31
2023-08-24T14:36:22.209Z,96887.53
2023-08-24T14:38:49.860Z,96887.63
2023-08-24T14:41:16.932Z,96898.53
2023-08-24T14:43:43.587Z,96896.16
2023-08-24T14:46:10.517Z,96890.09
2023-08-24T14:48:37.553Z,96886.41
2023-08-24T14:51:04.283Z,96884.50
2023-08-24T14:53:31.064Z,96877.91
2023-08-24T14:55:58.542Z,96877.06
2023-08-24T14:58:26.813Z,96869.72
2023-08-24T15:00:56.169Z,96870.63
2023-08-24T15:03:24.191Z,96875.00
2023-08-24T15:05:59.483Z,96855.16
2023-08-24T15:08:26.826Z,96850.13
2023-08-24T15:10:57.613Z,96852.53
2023-08-24T15:13:25.376Z,96863.97
2023-08-24T15:15:54.661Z,96868.88
2023-08-24T15:18:21.974Z,96869.47
2023-08-24T15:20:48.850Z,96893.34
2023-08-24T15:23:26.775Z,96927.06
2023-08-24T15:25:58.187Z,96951.16
2023-08-24T15:28:25.693Z,96953.19
2023-08-24T15:30:52.789Z,96951.75
2023-08-24T15:33:20.702Z,96900.41
2023-08-24T15:35:48.465Z,96837.84
2023-08-24T15:38:15.123Z,96866.81
2023-08-24T15:40:44.081Z,96937.38
2023-08-24T15:43:12.351Z,96940.25
2023-08-24T15:45:39.026Z,96933.66
2023-08-24T15:48:06.079Z,96937.88
2023-08-24T15:50:32.786Z,96936.00
2023-08-24T15:52:59.660Z,96922.28
2023-08-24T15:55:29.346Z,96915.03
2023-08-24T15:57:56.089Z,96892.31
2023-08-24T16:00:22.901Z,96867.97
2023-08-24T16:02:49.586Z,96821.06
2023-08-24T16:05:16.721Z,96801.47
2023-08-24T16:07:43.401Z,96814.88
2023-08-24T16:10:10.643Z,96815.38
2023-08-24T16:12:37.442Z,96816.09
2023-08-24T16:15:05.284Z,96822.09
2023-08-24T16:17:32.566Z,96811.16
2023-08-24T16:19:59.267Z,96814.41
2023-08-24T16:22:25.992Z,96800.94
2023-08-24T16:24:52.630Z,96787.63
2023-08-24T16:27:19.305Z,96796.41
2023-08-24T16:29:45.947Z,96813.44
2023-08-24T16:32:12.690Z,96815.81
2023-08-24T16:34:40.522Z,96805.34
2023-08-24T16:37:07.233Z,96804.34
2023-08-24T16:39:33.966Z,96801.03
2023-08-24T16:42:00.606Z,96793.59
2023-08-24T16:44:27.253Z,96803.56
2023-08-24T16:46:53.962Z,96804.34
2023-08-24T16:49:21.611Z,96800.53
2023-08-24T16:51:48.598Z,96789.25
2023-08-24T16:54:15.243Z,96791.66
2023-08-24T16:56:42.039Z,96792.03
2023-08-24T16:59:08.906Z,96786.84
2023-08-24T17:01:35.558Z,96792.25
2023-08-24T17:04:02.452Z,96815.97
2023-08-24T17:06:31.129Z,96854.75
2023-08-24T17:08:58.973Z,96889.28
2023-08-24T17:11:25.657Z,96892.97
2023-08-24T17:13:54.606Z,96872.84
2023-08-24T17:16:21.846Z,96851.97
2023-08-24T17:18:48.807Z,96828.88
2023-08-24T17:21:16.735Z,96806.13
2023-08-24T17:23:43.549Z,96776.00
2023-08-24T17:26:10.336Z,96733.84
2023-08-24T17:28:37.562Z,96689.03
2023-08-24T17:31:05.813Z,96650.31
2023-08-24T17:33:35.686Z,96650.63
2023-08-24T17:36:03.946Z,96656.88
2023-08-24T17:38:32.741Z,96654.03
2023-08-24T17:41:03.970Z,96641.28
2023-08-24T17:43:31.394Z,96636.25
2023-08-24T17:45:58.068Z,96628.13
2023-08-24T17:48:24.745Z,96623.59
2023-08-24T17:50:56.164Z,96617.59
2023-08-24T17:53:28.664Z,96613.72
2023-08-24T17:55:56.026Z,96611.41
2023-08-24T17:58:23.447Z,96600.22
2023-08-24T18:00:51.021Z,96600.53
2023-08-24T18:03:18.741Z,96611.25
2023-08-24T18:05:45.915Z,96612.91
2023-08-24T18:08:13.310Z,96600.63
2023-08-24T18:10:40.517Z,96583.44
2023-08-24T18:13:07.483Z,96579.75
2023-08-24T18:15:38.701Z,96578.78
2023-08-24T18:18:06.589Z,96598.66
2023-08-24T18:20:34.109Z,96601.44
2023-08-24T18:23:01.285Z,96598.72
2023-08-24T18:25:28.299Z,96603.44
2023-08-24T18:27:55.508Z,96604.84
2023-08-24T18:30:22.579Z,96604.31
2023-08-24T18:32:49.803Z,96598.00
2023-08-24T18:35:16.698Z,96594.47
2023-08-24T18:37:43.411Z,96591.13
2023-08-24T18:40:10.777Z,96593.16
2023-08-24T18:42:38.151Z,96586.84
2023-08-24T18:45:08.296Z,96589.19
2023-08-24T18:47:35.303Z,96585.34
2023-08-24T18:50:02.580Z,96591.78
2023-08-24T18:52:30.090Z,96585.16
2023-08-24T18:54:59.378Z,96578.63
2023-08-24T18:57:26.273Z,96575.97
2023-08-24T18:59:53.566Z,96566.97
2023-08-24T19:02:22.049Z,96569.47
2023-08-24T19:04:50.818Z,96576.34
2023-08-24T19:07:18.512Z,96565.81
2023-08-24T19:09:45.364Z,96568.63
2023-08-24T19:12:12.292Z,96562.81
2023-08-24T19:14:39.197Z,96553.78
2023-08-24T19:17:06.351Z,96557.31
2023-08-24T19:19:33.208Z,96557.66
2023-08-24T19:22:00.396Z,96549.66
2023-08-24T19:24:27.916Z,96554.97
2023-08-24T19:26:54.609Z,96550.63
2023-08-24T19:29:21.572Z,96549.91
2023-08-24T19:31:48.314Z,96545.22
2023-08-24T19:34:15.126Z,96545.25
2023-08-24T19:36:41.770Z,96541.94
2023-08-24T19:39:08.705Z,96536.44
2023-08-24T19:41:40.954Z,96538.94
2023-08-24T19:44:17.100Z,96522.44
2023-08-24T19:46:44.528Z,96531.13
2023-08-24T19:49:11.254Z,96533.44
2023-08-24T19:51:39.500Z,96545.81
2023-08-24T19:54:06.550Z,96543.63
2023-08-24T19:56:33.591Z,96557.31
2023-08-24T19:59:00.611Z,96566.31
2023-08-24T20:01:30.363Z,96570.66
2023-08-24T20:03:57.854Z,96563.66
2023-08-24T20:06:26.641Z,96570.13
2023-08-24T20:08:55.192Z,96578.81
2023-08-24T20:11:22.324Z,96586.94
2023-08-24T20:13:50.480Z,96602.06
2023-08-24T20:16:17.349Z,96605.84
2023-08-24T20:18:45.097Z,96598.78
2023-08-24T20:21:12.078Z,96596.16
2023-08-24T20:23:41.763Z,96605.16
2023-08-24T20:26:11.510Z,96610.16
2023-08-24T20:28:41.241Z,96613.66
2023-08-24T20:31:09.314Z,96617.53
2023-08-24T20:33:37.457Z,96619.03
2023-08-24T20:36:05.645Z,96614.38
2023-08-24T20:38:32.682Z,96610.53
2023-08-24T20:41:03.770Z,96610.97
2023-08-24T20:43:31.486Z,96610.78
2023-08-24T20:45:58.343Z,96595.84
2023-08-24T20:48:24.998Z,96591.88
2023-08-24T20:50:55.779Z,96582.41
2023-08-24T20:53:22.455Z,96574.91
2023-08-24T20:55:49.141Z,96568.97
2023-08-24T20:58:17.469Z,96574.78
2023-08-24T21:00:44.149Z,96580.81
2023-08-24T21:03:10.922Z,96587.00
2023-08-24T21:05:37.605Z,96590.03
2023-08-24T21:08:05.118Z,96599.03
2023-08-24T21:10:31.759Z,96618.22
2023-08-24T21:12:58.719Z,96622.06
2023-08-24T21:15:25.374Z,96611.72
2023-08-24T21:17:52.326Z,96612.88
2023-08-24T21:20:20.847Z,96614.22
2023-08-24T21:22:47.503Z,96602.56
2023-08-24T21:25:14.715Z,96606.38
2023-08-24T21:27:41.505Z,96592.69
2023-08-24T21:30:08.702Z,96601.38
2023-08-24T21:32:36.753Z,96592.34
2023-08-24T21:35:05.148Z,96600.69
2023-08-24T21:37:32.912Z,96595.00
2023-08-24T21:40:00.462Z,96589.19
2023-08-24T21:42:27.510Z,96589.84
2023-08-24T21:44:54.285Z,96590.69
2023-08-24T21:47:21.659Z,96592.88
2023-08-24T21:49:48.682Z,96591.34
2023-08-24T21:52:15.883Z,96581.47
2023-08-24T21:54:42.954Z,96578.31
2023-08-24T21:57:10.647Z,96581.34
2023-08-24T21:59:37.373Z,96573.66
2023-08-24T22:02:04.456Z,96579.34
2023-08-24T22:04:31.496Z,96587.53
2023-08-24T22:06:58.780Z,96589.00
2023-08-24T22:09:25.597Z,96595.66
2023-08-24T22:11:52.275Z,96597.19
2023-08-24T22:14:21.322Z,96595.69
2023-08-24T22:16:48.054Z,96600.16
2023-08-24T22:19:26.128Z,96600.34
2023-08-24T22:21:54.177Z,96598.81
2023-08-24T22:24:21.520Z,96609.31
2023-08-24T22:26:48.257Z,96609.97
2023-08-24T22:29:15.037Z,96610.81
2023-08-24T22:31:42.794Z,96615.16
2023-08-24T22:34:10.418Z,96608.22
2023-08-24T22:36:37.344Z,96614.16
2023-08-24T22:39:04.613Z,96621.75
2023-08-24T22:41:31.700Z,96627.41
2023-08-24T22:43:58.470Z,96629.41
2023-08-24T22:46:25.635Z,96630.03
2023-08-24T22:48:52.330Z,96639.59
2023-08-24T22:51:19.868Z,96639.50
2023-08-24T22:53:46.564Z,96647.09
2023-08-24T22:56:16.914Z,96642.44
2023-08-24T22:58:43.700Z,96643.84
2023-08-24T23:01:23.593Z,96637.38
2023-08-24T23:03:50.620Z,96638.94
2023-08-24T23:06:21.480Z,96635.22
2023-08-24T23:08:49.722Z,96638.50
2023-08-24T23:11:17.371Z,96636.50
2023-08-24T23:13:43.993Z,96639.09
2023-08-24T23:16:10.984Z,96635.88
2023-08-24T23:18:39.101Z,96633.94
2023-08-24T23:21:05.926Z,96631.16
2023-08-24T23:23:32.855Z,96631.16
2023-08-24T23:25:59.727Z,96628.50
2023-08-24T23:28:26.811Z,96634.00
2023-08-24T23:30:53.603Z,96632.94
2023-08-24T23:33:20.449Z,96627.50
2023-08-24T23:35:47.675Z,96626.47
2023-08-24T23:38:14.322Z,96621.38
2023-08-24T23:40:41.782Z,96626.50
2023-08-24T23:43:08.410Z,96625.81
2023-08-24T23:45:36.632Z,96622.41
2023-08-24T23:48:04.196Z,96627.09
2023-08-24T23:50:31.403Z,96629.47
2023-08-24T23:52:58.691Z,96628.31
2023-08-24T23:55:25.751Z,96625.25
2023-08-24T23:57:53.955Z,96621.56
